sensor_id;sensor_type;location;lat;lon;timestamp;pressure;altitude;pressure_sealevel;temperature;humidity
60319;BME280;46163;52.306;5.634;2022-07-26T00:01:42;101127.16;;;24.05;56.72
60319;BME280;46163;52.306;5.634;2022-07-26T00:04:08;101127.72;;;24.07;56.91
60319;BME280;46163;52.306;5.634;2022-07-26T00:06:33;101133.41;;;24.06;56.89
60319;BME280;46163;52.306;5.634;2022-07-26T00:08:59;101130.69;;;24.06;56.83
60319;BME280;46163;52.306;5.634;2022-07-26T00:11:25;101127.75;;;24.02;57.02
60319;BME280;46163;52.306;5.634;2022-07-26T00:13:52;101133.69;;;24.04;57.16
60319;BME280;46163;52.306;5.634;2022-07-26T00:16:18;101138.34;;;24.04;57.10
60319;BME280;46163;52.306;5.634;2022-07-26T00:18:43;101130.22;;;23.99;56.83
60319;BME280;46163;52.306;5.634;2022-07-26T00:21:09;101144.06;;;24.02;57.01
60319;BME280;46163;52.306;5.634;2022-07-26T00:23:35;101139.72;;;24.01;57.00
60319;BME280;46163;52.306;5.634;2022-07-26T00:26:01;101140.81;;;24.00;56.96
60319;BME280;46163;52.306;5.634;2022-07-26T00:28:26;101142.72;;;24.00;57.32
60319;BME280;46163;52.306;5.634;2022-07-26T00:30:52;101147.34;;;23.99;57.02
60319;BME280;46163;52.306;5.634;2022-07-26T00:33:17;101148.44;;;23.98;56.93
60319;BME280;46163;52.306;5.634;2022-07-26T00:35:43;101144.09;;;23.97;57.09
60319;BME280;46163;52.306;5.634;2022-07-26T00:38:08;101146.28;;;23.95;56.95
60319;BME280;46163;52.306;5.634;2022-07-26T00:40:34;101149.81;;;23.95;57.06
60319;BME280;46163;52.306;5.634;2022-07-26T00:42:59;101149.81;;;23.95;57.05
60319;BME280;46163;52.306;5.634;2022-07-26T00:45:25;101155.25;;;23.95;57.26
60319;BME280;46163;52.306;5.634;2022-07-26T00:47:50;101160.97;;;23.94;57.08
60319;BME280;46163;52.306;5.634;2022-07-26T00:50:17;101153.91;;;23.93;57.32
60319;BME280;46163;52.306;5.634;2022-07-26T00:52:47;101155.00;;;23.92;57.23
60319;BME280;46163;52.306;5.634;2022-07-26T00:55:13;101165.88;;;23.92;57.19
60319;BME280;46163;52.306;5.634;2022-07-26T00:57:40;101159.63;;;23.91;57.33
60319;BME280;46163;52.306;5.634;2022-07-26T01:00:14;101160.97;;;23.89;57.31
60319;BME280;46163;52.306;5.634;2022-07-26T01:02:40;101161.81;;;23.89;57.23
60319;BME280;46163;52.306;5.634;2022-07-26T01:05:06;101167.25;;;23.89;57.48
60319;BME280;46163;52.306;5.634;2022-07-26T01:07:32;101170.25;;;23.88;57.36
60319;BME280;46163;52.306;5.634;2022-07-26T01:09:57;101167.53;;;23.88;57.20
60319;BME280;46163;52.306;5.634;2022-07-26T01:12:23;101174.84;;;23.87;57.20
60319;BME280;46163;52.306;5.634;2022-07-26T01:14:49;101172.44;;;23.86;57.27
60319;BME280;46163;52.306;5.634;2022-07-26T01:17:14;101168.63;;;23.87;57.19
60319;BME280;46163;52.306;5.634;2022-07-26T01:19:40;101162.66;;;23.85;57.23
60319;BME280;46163;52.306;5.634;2022-07-26T01:22:06;101163.75;;;23.84;57.34
60319;BME280;46163;52.306;5.634;2022-07-26T01:24:32;101163.75;;;23.84;57.18
60319;BME280;46163;52.306;5.634;2022-07-26T01:26:57;101161.84;;;23.84;57.17
60319;BME280;46163;52.306;5.634;2022-07-26T01:29:23;101161.31;;;23.82;57.41
60319;BME280;46163;52.306;5.634;2022-07-26T01:31:49;101152.34;;;23.82;57.23
60319;BME280;46163;52.306;5.634;2022-07-26T01:34:15;101160.50;;;23.82;57.07
60319;BME280;46163;52.306;5.634;2022-07-26T01:36:41;101162.41;;;23.81;57.24
60319;BME280;46163;52.306;5.634;2022-07-26T01:39:06;101152.63;;;23.80;57.24
60319;BME280;46163;52.306;5.634;2022-07-26T01:41:32;101153.72;;;23.79;57.30
60319;BME280;46163;52.306;5.634;2022-07-26T01:43:58;101149.94;;;23.75;57.38
60319;BME280;46163;52.306;5.634;2022-07-26T01:46:23;101161.88;;;23.79;57.60
60319;BME280;46163;52.306;5.634;2022-07-26T01:48:49;101152.91;;;23.79;57.14
60319;BME280;46163;52.306;5.634;2022-07-26T01:51:15;101148.56;;;23.78;57.59
60319;BME280;46163;52.306;5.634;2022-07-26T01:53:40;101148.56;;;23.78;57.55
60319;BME280;46163;52.306;5.634;2022-07-26T01:56:09;101141.28;;;23.73;57.21
60319;BME280;46163;52.306;5.634;2022-07-26T01:58:34;101161.63;;;23.76;57.62
60319;BME280;46163;52.306;5.634;2022-07-26T02:01:00;101152.66;;;23.75;57.48
60319;BME280;46163;52.306;5.634;2022-07-26T02:03:25;101159.19;;;23.74;57.50
60319;BME280;46163;52.306;5.634;2022-07-26T02:05:51;101166.53;;;23.74;57.38
60319;BME280;46163;52.306;5.634;2022-07-26T02:08:16;101164.63;;;23.74;57.46
60319;BME280;46163;52.306;5.634;2022-07-26T02:10:42;101161.38;;;23.72;57.64
60319;BME280;46163;52.306;5.634;2022-07-26T02:13:37;101149.19;;;23.64;57.64
60319;BME280;46163;52.306;5.634;2022-07-26T02:16:04;101162.44;;;23.71;57.62
60319;BME280;46163;52.306;5.634;2022-07-26T02:18:30;101157.31;;;23.69;57.51
60319;BME280;46163;52.306;5.634;2022-07-26T02:20:57;101155.69;;;23.68;57.42
60319;BME280;46163;52.306;5.634;2022-07-26T02:23:24;101154.06;;;23.67;57.33
60319;BME280;46163;52.306;5.634;2022-07-26T02:25:50;101153.81;;;23.64;57.62
60319;BME280;46163;52.306;5.634;2022-07-26T02:28:16;101148.13;;;23.60;57.43
60319;BME280;46163;52.306;5.634;2022-07-26T02:30:43;101164.41;;;23.65;57.48
60319;BME280;46163;52.306;5.634;2022-07-26T02:33:08;101161.69;;;23.65;57.72
60319;BME280;46163;52.306;5.634;2022-07-26T02:35:34;101171.75;;;23.65;57.40
60319;BME280;46163;52.306;5.634;2022-07-26T02:38:05;101167.94;;;23.61;57.51
60319;BME280;46163;52.306;5.634;2022-07-26T02:40:31;101168.47;;;23.63;57.58
60319;BME280;46163;52.306;5.634;2022-07-26T02:42:57;101175.81;;;23.62;57.61
60319;BME280;46163;52.306;5.634;2022-07-26T02:45:24;101166.34;;;23.55;57.54
60319;BME280;46163;52.306;5.634;2022-07-26T02:47:51;101182.34;;;23.61;57.73
60319;BME280;46163;52.306;5.634;2022-07-26T02:50:19;101177.44;;;23.58;57.60
60319;BME280;46163;52.306;5.634;2022-07-26T02:52:45;101188.31;;;23.58;57.48
60319;BME280;46163;52.306;5.634;2022-07-26T02:55:13;101187.78;;;23.56;57.77
60319;BME280;46163;52.306;5.634;2022-07-26T02:57:38;101190.50;;;23.56;57.71
60319;BME280;46163;52.306;5.634;2022-07-26T03:00:05;101189.69;;;23.56;57.52
60319;BME280;46163;52.306;5.634;2022-07-26T03:02:31;101189.94;;;23.54;57.71
60319;BME280;46163;52.306;5.634;2022-07-26T03:04:56;101191.84;;;23.54;57.73
60319;BME280;46163;52.306;5.634;2022-07-26T03:07:22;101189.41;;;23.52;57.80
60319;BME280;46163;52.306;5.634;2022-07-26T03:09:47;101200.28;;;23.52;57.64
60319;BME280;46163;52.306;5.634;2022-07-26T03:12:13;101202.47;;;23.50;57.80
60319;BME280;46163;52.306;5.634;2022-07-26T03:14:38;101207.91;;;23.50;57.82
60319;BME280;46163;52.306;5.634;2022-07-26T03:17:04;101212.53;;;23.50;57.88
60319;BME280;46163;52.306;5.634;2022-07-26T03:19:29;101212.00;;;23.48;57.82
60319;BME280;46163;52.306;5.634;2022-07-26T03:21:55;101215.53;;;23.48;57.92
60319;BME280;46163;52.306;5.634;2022-07-26T03:24:20;101213.09;;;23.47;57.90
60319;BME280;46163;52.306;5.634;2022-07-26T03:26:45;101215.25;;;23.45;57.72
60319;BME280;46163;52.306;5.634;2022-07-26T03:29:11;101220.69;;;23.45;57.91
60319;BME280;46163;52.306;5.634;2022-07-26T03:31:36;101225.31;;;23.44;57.97
60319;BME280;46163;52.306;5.634;2022-07-26T03:34:02;101231.53;;;23.45;57.89
60319;BME280;46163;52.306;5.634;2022-07-26T03:36:27;101230.22;;;23.42;58.08
60319;BME280;46163;52.306;5.634;2022-07-26T03:38:53;101227.50;;;23.42;57.79
60319;BME280;46163;52.306;5.634;2022-07-26T03:41:18;101231.31;;;23.41;58.11
60319;BME280;46163;52.306;5.634;2022-07-26T03:43:44;101205.28;;;23.25;57.91
60319;BME280;46163;52.306;5.634;2022-07-26T03:46:09;101232.41;;;23.40;57.87
60319;BME280;46163;52.306;5.634;2022-07-26T03:48:34;101242.44;;;23.39;58.05
60319;BME280;46163;52.306;5.634;2022-07-26T03:51:00;101240.00;;;23.38;57.99
60319;BME280;46163;52.306;5.634;2022-07-26T03:53:25;101217.22;;;23.29;58.17
60319;BME280;46163;52.306;5.634;2022-07-26T03:55:51;101242.97;;;23.36;57.97
60319;BME280;46163;52.306;5.634;2022-07-26T03:58:35;101235.13;;;23.35;57.87
60319;BME280;46163;52.306;5.634;2022-07-26T04:01:00;101243.53;;;23.33;57.91
60319;BME280;46163;52.306;5.634;2022-07-26T04:03:26;101241.63;;;23.34;58.02
60319;BME280;46163;52.306;5.634;2022-07-26T04:05:51;101231.88;;;23.33;58.23
60319;BME280;46163;52.306;5.634;2022-07-26T04:08:16;101244.63;;;23.32;57.53
60319;BME280;46163;52.306;5.634;2022-07-26T04:10:46;101237.56;;;23.31;58.19
60319;BME280;46163;52.306;5.634;2022-07-26T04:13:12;101240.28;;;23.31;58.02
60319;BME280;46163;52.306;5.634;2022-07-26T04:15:38;101241.38;;;23.30;57.92
60319;BME280;46163;52.306;5.634;2022-07-26T04:18:03;101245.19;;;23.29;58.03
60319;BME280;46163;52.306;5.634;2022-07-26T04:20:29;101248.16;;;23.28;57.89
60319;BME280;46163;52.306;5.634;2022-07-26T04:22:54;101254.69;;;23.27;58.02
60319;BME280;46163;52.306;5.634;2022-07-26T04:25:20;101257.41;;;23.27;57.97
60319;BME280;46163;52.306;5.634;2022-07-26T04:27:45;101257.41;;;23.27;57.95
60319;BME280;46163;52.306;5.634;2022-07-26T04:30:11;101263.66;;;23.27;58.11
60319;BME280;46163;52.306;5.634;2022-07-26T04:32:37;101259.59;;;23.25;57.90
60319;BME280;46163;52.306;5.634;2022-07-26T04:35:03;101262.03;;;23.21;58.10
60319;BME280;46163;52.306;5.634;2022-07-26T04:37:28;101265.00;;;23.25;57.98
60319;BME280;46163;52.306;5.634;2022-07-26T04:39:57;101260.69;;;23.24;58.31
60319;BME280;46163;52.306;5.634;2022-07-26T04:42:23;101268.81;;;23.24;57.96
60319;BME280;46163;52.306;5.634;2022-07-26T04:44:48;101266.91;;;23.24;57.90
60319;BME280;46163;52.306;5.634;2022-07-26T04:47:13;101265.00;;;23.25;58.00
60319;BME280;46163;52.306;5.634;2022-07-26T04:49:39;101268.53;;;23.25;57.84
60319;BME280;46163;52.306;5.634;2022-07-26T04:52:04;101266.09;;;23.24;58.37
60319;BME280;46163;52.306;5.634;2022-07-26T04:54:30;101267.19;;;23.23;58.05
60319;BME280;46163;52.306;5.634;2022-07-26T04:56:55;101270.44;;;23.25;57.70
60319;BME280;46163;52.306;5.634;2022-07-26T04:59:21;101283.75;;;23.26;57.89
60319;BME280;46163;52.306;5.634;2022-07-26T05:01:47;101282.94;;;23.26;58.24
60319;BME280;46163;52.306;5.634;2022-07-26T05:04:12;101287.28;;;23.27;57.79
60319;BME280;46163;52.306;5.634;2022-07-26T05:06:37;101291.06;;;23.26;57.63
60319;BME280;46163;52.306;5.634;2022-07-26T05:09:03;101295.97;;;23.24;57.62
60319;BME280;46163;52.306;5.634;2022-07-26T05:11:28;101296.50;;;23.26;58.09
60319;BME280;46163;52.306;5.634;2022-07-26T05:13:54;101294.59;;;23.26;57.77
60319;BME280;46163;52.306;5.634;2022-07-26T05:16:20;101307.38;;;23.26;57.84
60319;BME280;46163;52.306;5.634;2022-07-26T05:18:45;101302.75;;;23.26;57.81
60319;BME280;46163;52.306;5.634;2022-07-26T05:21:11;101304.66;;;23.26;57.89
60319;BME280;46163;52.306;5.634;2022-07-26T05:23:36;101312.00;;;23.25;57.89
60319;BME280;46163;52.306;5.634;2022-07-26T05:26:02;101311.19;;;23.25;58.01
60319;BME280;46163;52.306;5.634;2022-07-26T05:28:27;101315.50;;;23.26;57.66
60319;BME280;46163;52.306;5.634;2022-07-26T05:30:53;101317.41;;;23.25;57.59
60319;BME280;46163;52.306;5.634;2022-07-26T05:33:18;101312.25;;;23.24;57.68
60319;BME280;46163;52.306;5.634;2022-07-26T05:35:44;101314.16;;;23.23;57.70
60319;BME280;46163;52.306;5.634;2022-07-26T05:38:09;101316.06;;;23.23;58.06
60319;BME280;46163;52.306;5.634;2022-07-26T05:40:36;101320.41;;;23.24;57.73
60319;BME280;46163;52.306;5.634;2022-07-26T05:43:02;101321.50;;;23.23;58.00
60319;BME280;46163;52.306;5.634;2022-07-26T05:45:29;101326.13;;;23.22;57.76
60319;BME280;46163;52.306;5.634;2022-07-26T05:47:54;101313.63;;;23.16;58.04
60319;BME280;46163;52.306;5.634;2022-07-26T05:50:20;101325.31;;;23.22;57.94
60319;BME280;46163;52.306;5.634;2022-07-26T05:52:46;101329.94;;;23.21;57.78
60319;BME280;46163;52.306;5.634;2022-07-26T05:55:26;101331.28;;;23.19;57.83
60319;BME280;46163;52.306;5.634;2022-07-26T05:57:52;101347.84;;;23.22;58.02
60319;BME280;46163;52.306;5.634;2022-07-26T06:00:17;101344.31;;;23.22;57.70
60319;BME280;46163;52.306;5.634;2022-07-26T06:02:43;101345.41;;;23.21;57.93
60319;BME280;46163;52.306;5.634;2022-07-26T06:05:09;101347.03;;;23.22;57.91
60319;BME280;46163;52.306;5.634;2022-07-26T06:07:34;101356.28;;;23.21;57.77
60319;BME280;46163;52.306;5.634;2022-07-26T06:10:00;101351.38;;;23.18;57.80
60319;BME280;46163;52.306;5.634;2022-07-26T06:12:25;101350.28;;;23.19;57.80
60319;BME280;46163;52.306;5.634;2022-07-26T06:14:51;101362.22;;;23.18;57.97
60319;BME280;46163;52.306;5.634;2022-07-26T06:17:17;101358.69;;;23.17;57.92
60319;BME280;46163;52.306;5.634;2022-07-26T06:19:43;101369.56;;;23.17;57.96
60319;BME280;46163;52.306;5.634;2022-07-26T06:22:08;101362.50;;;23.16;57.87
60319;BME280;46163;52.306;5.634;2022-07-26T06:24:34;101379.59;;;23.17;58.09
60319;BME280;46163;52.306;5.634;2022-07-26T06:27:00;101377.44;;;23.13;57.97
60319;BME280;46163;52.306;5.634;2022-07-26T06:29:25;101385.03;;;23.17;58.01
60319;BME280;46163;52.306;5.634;2022-07-26T06:31:51;101384.22;;;23.16;57.95
60319;BME280;46163;52.306;5.634;2022-07-26T06:34:17;101387.22;;;23.15;57.93
60319;BME280;46163;52.306;5.634;2022-07-26T06:36:43;101392.38;;;23.16;58.07
60319;BME280;46163;52.306;5.634;2022-07-26T06:39:09;101389.66;;;23.16;58.24
60319;BME280;46163;52.306;5.634;2022-07-26T06:41:34;101396.72;;;23.17;57.96
60319;BME280;46163;52.306;5.634;2022-07-26T06:44:00;101398.59;;;23.17;57.74
60319;BME280;46163;52.306;5.634;2022-07-26T06:46:25;101405.94;;;23.16;57.84
60319;BME280;46163;52.306;5.634;2022-07-26T06:48:51;101388.28;;;23.08;58.01
60319;BME280;46163;52.306;5.634;2022-07-26T06:51:17;101405.66;;;23.18;57.96
60319;BME280;46163;52.306;5.634;2022-07-26T06:53:42;101413.81;;;23.18;58.13
60319;BME280;46163;52.306;5.634;2022-07-26T06:56:07;101408.66;;;23.16;57.92
60319;BME280;46163;52.306;5.634;2022-07-26T06:58:33;101416.81;;;23.16;57.74
60319;BME280;46163;52.306;5.634;2022-07-26T07:00:59;101420.59;;;23.15;58.09
60319;BME280;46163;52.306;5.634;2022-07-26T07:03:24;101425.22;;;23.15;57.96
60319;BME280;46163;52.306;5.634;2022-07-26T07:05:50;101433.38;;;23.15;58.14
60319;BME280;46163;52.306;5.634;2022-07-26T07:08:16;101428.75;;;23.15;57.86
60319;BME280;46163;52.306;5.634;2022-07-26T07:10:41;101442.59;;;23.13;57.60
60319;BME280;46163;52.306;5.634;2022-07-26T07:13:07;101435.53;;;23.12;57.94
60319;BME280;46163;52.306;5.634;2022-07-26T07:15:33;101437.97;;;23.14;57.69
60319;BME280;46163;52.306;5.634;2022-07-26T07:17:58;101426.56;;;23.07;57.66
60319;BME280;46163;52.306;5.634;2022-07-26T07:20:24;101449.38;;;23.16;57.83
60319;BME280;46163;52.306;5.634;2022-07-26T07:22:50;101449.09;;;23.18;57.77
60319;BME280;46163;52.306;5.634;2022-07-26T07:25:15;101457.53;;;23.16;57.62
60319;BME280;46163;52.306;5.634;2022-07-26T07:27:41;101458.34;;;23.17;57.67
60319;BME280;46163;52.306;5.634;2022-07-26T07:30:07;101465.41;;;23.18;57.72
60319;BME280;46163;52.306;5.634;2022-07-26T07:32:35;101468.69;;;23.20;57.61
60319;BME280;46163;52.306;5.634;2022-07-26T07:35:00;101473.03;;;23.21;57.63
60319;BME280;46163;52.306;5.634;2022-07-26T07:37:26;101480.09;;;23.22;57.72
60319;BME280;46163;52.306;5.634;2022-07-26T07:39:51;101481.44;;;23.24;57.45
60319;BME280;46163;52.306;5.634;2022-07-26T07:42:17;101488.50;;;23.25;57.50
60319;BME280;46163;52.306;5.634;2022-07-26T07:44:43;101481.16;;;23.26;57.67
60319;BME280;46163;52.306;5.634;2022-07-26T07:47:08;101467.56;;;23.16;57.39
60319;BME280;46163;52.306;5.634;2022-07-26T07:49:34;101498.00;;;23.28;57.46
60319;BME280;46163;52.306;5.634;2022-07-26T07:52:00;101484.97;;;23.30;57.06
60319;BME280;46163;52.306;5.634;2022-07-26T07:54:25;101482.81;;;23.32;57.03
60319;BME280;46163;52.306;5.634;2022-07-26T07:56:51;101483.63;;;23.32;57.48
60319;BME280;46163;52.306;5.634;2022-07-26T07:59:17;101491.22;;;23.35;57.00
60319;BME280;46163;52.306;5.634;2022-07-26T08:01:42;101478.97;;;23.28;57.25
60319;BME280;46163;52.306;5.634;2022-07-26T08:04:08;101484.69;;;23.36;57.16
60319;BME280;46163;52.306;5.634;2022-07-26T08:06:34;101493.69;;;23.37;57.10
60319;BME280;46163;52.306;5.634;2022-07-26T08:09:00;101496.41;;;23.37;56.90
60319;BME280;46163;52.306;5.634;2022-07-26T08:11:25;101498.28;;;23.31;57.02
60319;BME280;46163;52.306;5.634;2022-07-26T08:13:51;101502.91;;;23.36;56.77
60319;BME280;46163;52.306;5.634;2022-07-26T08:16:17;101494.50;;;23.37;56.83
60319;BME280;46163;52.306;5.634;2022-07-26T08:18:42;101498.84;;;23.38;56.95
60319;BME280;46163;52.306;5.634;2022-07-26T08:21:08;101496.66;;;23.40;56.77
60319;BME280;46163;52.306;5.634;2022-07-26T08:23:33;101493.13;;;23.40;56.86
60319;BME280;46163;52.306;5.634;2022-07-26T08:25:59;101490.16;;;23.41;56.78
60319;BME280;46163;52.306;5.634;2022-07-26T08:28:27;101493.97;;;23.46;56.72
60319;BME280;46163;52.306;5.634;2022-07-26T08:30:52;101496.94;;;23.49;56.65
60319;BME280;46163;52.306;5.634;2022-07-26T08:33:18;101508.34;;;23.51;56.53
60319;BME280;46163;52.306;5.634;2022-07-26T08:35:43;101515.94;;;23.54;56.50
60319;BME280;46163;52.306;5.634;2022-07-26T08:38:09;101506.75;;;23.60;56.38
60319;BME280;46163;52.306;5.634;2022-07-26T08:40:34;101513.28;;;23.64;56.10
60319;BME280;46163;52.306;5.634;2022-07-26T08:43:00;101518.72;;;23.64;56.24
60319;BME280;46163;52.306;5.634;2022-07-26T08:45:28;101514.91;;;23.65;56.25
60319;BME280;46163;52.306;5.634;2022-07-26T08:47:55;101500.72;;;23.53;56.12
60319;BME280;46163;52.306;5.634;2022-07-26T08:50:22;101529.59;;;23.64;56.33
60319;BME280;46163;52.306;5.634;2022-07-26T08:52:48;101546.16;;;23.63;55.94
60319;BME280;46163;52.306;5.634;2022-07-26T08:55:17;101552.38;;;23.58;56.25
60319;BME280;46163;52.306;5.634;2022-07-26T08:57:43;101558.09;;;23.62;56.04
60319;BME280;46163;52.306;5.634;2022-07-26T09:00:21;101564.34;;;23.62;56.01
60319;BME280;46163;52.306;5.634;2022-07-26T09:02:47;101556.19;;;23.62;55.95
60319;BME280;46163;52.306;5.634;2022-07-26T09:05:13;101562.19;;;23.64;56.23
60319;BME280;46163;52.306;5.634;2022-07-26T09:07:39;101563.81;;;23.65;55.93
60319;BME280;46163;52.306;5.634;2022-07-26T09:10:10;101562.19;;;23.64;56.12
60319;BME280;46163;52.306;5.634;2022-07-26T09:12:37;101574.16;;;23.68;56.20
60319;BME280;46163;52.306;5.634;2022-07-26T09:15:04;101572.25;;;23.69;55.96
60319;BME280;46163;52.306;5.634;2022-07-26T09:17:40;101574.69;;;23.71;55.91
60319;BME280;46163;52.306;5.634;2022-07-26T09:20:12;101567.63;;;23.69;56.06
60319;BME280;46163;52.306;5.634;2022-07-26T09:22:55;101571.72;;;23.67;56.02
60319;BME280;46163;52.306;5.634;2022-07-26T09:25:23;101570.63;;;23.68;55.88
60319;BME280;46163;52.306;5.634;2022-07-26T09:27:49;101577.41;;;23.71;56.00
60319;BME280;46163;52.306;5.634;2022-07-26T09:30:14;101582.84;;;23.71;55.92
60319;BME280;46163;52.306;5.634;2022-07-26T09:32:54;101579.88;;;23.72;55.72
60319;BME280;46163;52.306;5.634;2022-07-26T09:35:20;101576.88;;;23.74;55.79
60319;BME280;46163;52.306;5.634;2022-07-26T09:37:46;101579.88;;;23.72;56.03
60319;BME280;46163;52.306;5.634;2022-07-26T09:40:14;101585.03;;;23.79;55.93
60319;BME280;46163;52.306;5.634;2022-07-26T09:45:18;101580.69;;;23.83;55.77
60319;BME280;46163;52.306;5.634;2022-07-26T09:47:44;101586.66;;;23.85;55.65
60319;BME280;46163;52.306;5.634;2022-07-26T09:50:26;101593.72;;;23.86;55.38
60319;BME280;46163;52.306;5.634;2022-07-26T09:53:10;101589.66;;;23.88;55.63
60319;BME280;46163;52.306;5.634;2022-07-26T09:55:56;101599.69;;;23.88;55.33
60319;BME280;46163;52.306;5.634;2022-07-26T09:58:23;101594.84;;;23.90;55.43
60319;BME280;46163;52.306;5.634;2022-07-26T10:00:49;101604.34;;;23.92;55.21
60319;BME280;46163;52.306;5.634;2022-07-26T10:03:14;101602.97;;;23.95;55.51
60319;BME280;46163;52.306;5.634;2022-07-26T10:05:40;101594.28;;;23.98;55.32
60319;BME280;46163;52.306;5.634;2022-07-26T10:08:06;101598.63;;;23.94;55.20
60319;BME280;46163;52.306;5.634;2022-07-26T10:10:37;101579.06;;;23.82;55.58
60319;BME280;46163;52.306;5.634;2022-07-26T10:13:06;101613.56;;;23.96;55.24
60319;BME280;46163;52.306;5.634;2022-07-26T10:15:34;101607.03;;;23.97;55.29
60319;BME280;46163;52.306;5.634;2022-07-26T10:18:00;101614.38;;;23.97;55.30
60319;BME280;46163;52.306;5.634;2022-07-26T10:25:56;101633.72;;;24.01;55.08
60319;BME280;46163;52.306;5.634;2022-07-26T10:28:24;101633.97;;;23.99;55.02
60319;BME280;46163;52.306;5.634;2022-07-26T10:30:51;101648.94;;;24.02;54.92
60319;BME280;46163;52.306;5.634;2022-07-26T10:33:21;101642.41;;;23.92;55.14
60319;BME280;46163;52.306;5.634;2022-07-26T10:35:48;101659.25;;;24.00;55.12
60319;BME280;46163;52.306;5.634;2022-07-26T10:38:24;101658.19;;;24.01;55.17
60319;BME280;46163;52.306;5.634;2022-07-26T10:41:03;101657.38;;;24.00;54.78
60319;BME280;46163;52.306;5.634;2022-07-26T10:43:29;101662.81;;;24.00;55.00
60319;BME280;46163;52.306;5.634;2022-07-26T10:51:25;101664.72;;;24.00;55.12
60319;BME280;46163;52.306;5.634;2022-07-26T10:54:03;101672.03;;;23.99;54.90
60319;BME280;46163;52.306;5.634;2022-07-26T10:56:29;101664.97;;;23.98;55.03
60319;BME280;46163;52.306;5.634;2022-07-26T10:58:54;101659.53;;;23.98;54.97
60319;BME280;46163;52.306;5.634;2022-07-26T11:01:20;101669.31;;;23.99;54.95
60319;BME280;46163;52.306;5.634;2022-07-26T11:03:46;101674.50;;;24.01;54.85
60319;BME280;46163;52.306;5.634;2022-07-26T11:06:13;101667.16;;;24.01;54.78
60319;BME280;46163;52.306;5.634;2022-07-26T11:08:40;101647.81;;;23.87;54.99
60319;BME280;46163;52.306;5.634;2022-07-26T11:11:05;101663.88;;;23.99;54.97
60319;BME280;46163;52.306;5.634;2022-07-26T11:13:32;101666.59;;;24.04;54.78
60319;BME280;46163;52.306;5.634;2022-07-26T11:16:00;101661.69;;;24.06;54.83
60319;BME280;46163;52.306;5.634;2022-07-26T11:18:30;101671.78;;;24.11;54.89
60319;BME280;46163;52.306;5.634;2022-07-26T11:21:07;101665.53;;;24.10;54.78
60319;BME280;46163;52.306;5.634;2022-07-26T11:23:37;101672.31;;;24.13;54.83
60319;BME280;46163;52.306;5.634;2022-07-26T11:28:59;101674.22;;;24.17;54.63
60319;BME280;46163;52.306;5.634;2022-07-26T11:31:43;101677.50;;;24.19;54.46
60319;BME280;46163;52.306;5.634;2022-07-26T11:34:17;101675.31;;;24.21;54.56
60319;BME280;46163;52.306;5.634;2022-07-26T11:36:44;101673.16;;;24.18;54.54
60319;BME280;46163;52.306;5.634;2022-07-26T11:39:13;101673.97;;;24.24;54.56
60319;BME280;46163;52.306;5.634;2022-07-26T11:41:40;101686.22;;;24.27;54.38
60319;BME280;46163;52.306;5.634;2022-07-26T11:44:12;101669.34;;;24.24;54.40
60319;BME280;46163;52.306;5.634;2022-07-26T11:46:39;101673.97;;;24.24;54.49
60319;BME280;46163;52.306;5.634;2022-07-26T11:49:18;101678.56;;;24.23;54.44
60319;BME280;46163;52.306;5.634;2022-07-26T11:52:00;101682.38;;;24.22;54.62
60319;BME280;46163;52.306;5.634;2022-07-26T11:54:31;101686.47;;;24.20;54.56
60319;BME280;46163;52.306;5.634;2022-07-26T11:57:03;101681.84;;;24.15;54.16
60319;BME280;46163;52.306;5.634;2022-07-26T11:59:30;101685.66;;;24.19;54.37
60319;BME280;46163;52.306;5.634;2022-07-26T12:01:57;101704.44;;;24.16;54.65
60319;BME280;46163;52.306;5.634;2022-07-26T12:04:26;101712.59;;;24.16;54.60
60319;BME280;46163;52.306;5.634;2022-07-26T12:06:52;101713.66;;;24.15;54.55
60319;BME280;46163;52.306;5.634;2022-07-26T12:12:05;101704.13;;;24.12;54.38
60319;BME280;46163;52.306;5.634;2022-07-26T12:14:34;101706.56;;;24.14;54.52
60319;BME280;46163;52.306;5.634;2022-07-26T12:17:13;101704.13;;;24.12;54.31
60319;BME280;46163;52.306;5.634;2022-07-26T12:19:39;101712.81;;;24.14;54.23
60319;BME280;46163;52.306;5.634;2022-07-26T12:22:14;101694.34;;;24.11;54.45
60319;BME280;46163;52.306;5.634;2022-07-26T12:27:19;101704.66;;;24.14;54.42
60319;BME280;46163;52.306;5.634;2022-07-26T12:29:47;101710.38;;;24.13;54.24
60319;BME280;46163;52.306;5.634;2022-07-26T12:32:18;101710.66;;;24.11;54.54
60319;BME280;46163;52.306;5.634;2022-07-26T12:35:14;101716.09;;;24.11;54.46
60319;BME280;46163;52.306;5.634;2022-07-26T12:42:43;101715.03;;;24.07;54.30
60319;BME280;46163;52.306;5.634;2022-07-26T12:45:23;101713.38;;;24.06;54.48
60319;BME280;46163;52.306;5.634;2022-07-26T12:47:50;101714.44;;;24.05;54.55
60319;BME280;46163;52.306;5.634;2022-07-26T12:50:18;101723.44;;;24.01;54.39
60319;BME280;46163;52.306;5.634;2022-07-26T12:52:44;101723.69;;;24.04;54.45
60319;BME280;46163;52.306;5.634;2022-07-26T12:55:14;101728.31;;;24.04;54.37
60319;BME280;46163;52.306;5.634;2022-07-26T12:57:42;101715.00;;;24.02;54.46
60319;BME280;46163;52.306;5.634;2022-07-26T13:00:09;101722.88;;;24.04;54.25
60319;BME280;46163;52.306;5.634;2022-07-26T13:02:37;101724.50;;;24.05;54.45
60319;BME280;46163;52.306;5.634;2022-07-26T13:05:04;101726.69;;;24.03;54.29
60319;BME280;46163;52.306;5.634;2022-07-26T13:07:30;101729.41;;;24.03;54.27
60319;BME280;46163;52.306;5.634;2022-07-26T13:09:56;101733.47;;;24.05;54.28
60319;BME280;46163;52.306;5.634;2022-07-26T13:12:22;101726.13;;;24.06;54.11
60319;BME280;46163;52.306;5.634;2022-07-26T13:14:47;101723.19;;;24.07;54.22
60319;BME280;46163;52.306;5.634;2022-07-26T13:17:13;101732.41;;;24.11;54.20